Darstellungsparameter: Aktuell verwendete Einstellungen:
Skalierung der Graphiken ... ?
xyx+y,   Skalierungsfaktor:      Skalierung: Modus: x, Faktor: 1
Darstellungszeitraum ... ?
Vom - - bis: - -   Zeitraum: 28.08.2019 - 28.08.2019
Min/Max/Avg-Anzeige ... ?
Zeige MMA aktuell
Zeige MMA Monat
Zeige MMA alles
Zeige --A aktuell
Zeige --A Monat
Zeige --A alles
Keine MMA-Anzeige
MMA:
Average (ber die Originaldaten)
MMA-Basis: 28.08.2019 - 28.08.2019
Quicknavigation für Darstellung... ?
Tage:      1T, 2T, 3T, 5T -1T -2T -3T -5T +1T +2T +3T +5T
Wochen: 1W, 2W, 3W -1W -2W -3W +1W +2W +3W
Monate: 1M, 3M, 6M -1M -3M -6M +1M +3M +6M
Jahre:    1J, 3J, 5J, 10J -1J -3J -5J -10J +1J +3J +5J +10J
Nutze für die Darstellung ... ?
Originaldaten oder Mittelwerte auf ...
Stundenbasis Tagesbasis Wochenbasis
Monatsbasis Jahresbasis      Datenbasis: Original-Daten
Darstellen als:
Statistik (Auto) Statistik J:M      Darstellung:
Zur Graphik,    zurück zur Übersicht aller Sensoren.
 
Tabellarische Datenbersicht: ?
 
Sensor: Nr:Datum:Temp:Feuchte:Taupunkt:
Aussen-T/F 1 28-08-2019 00:00:00 19.9 C 89 % 18.03 C
2 28-08-2019 00:05:00 20 C 90 % 18.31 C
3 28-08-2019 00:10:00 20.1 C 90 % 18.41 C
4 28-08-2019 00:15:00 20.1 C 90 % 18.41 C
5 28-08-2019 00:20:00 19.9 C 89 % 18.03 C
6 28-08-2019 00:25:00 19.9 C 90 % 18.21 C
7 28-08-2019 00:30:00 19.9 C 90 % 18.21 C
8 28-08-2019 00:35:00 19.8 C 90 % 18.11 C
9 28-08-2019 00:40:00 19.8 C 90 % 18.11 C
10 28-08-2019 00:45:00 19.8 C 91 % 18.29 C
11 28-08-2019 00:50:00 19.8 C 91 % 18.29 C
12 28-08-2019 00:55:00 19.8 C 91 % 18.29 C
13 28-08-2019 01:00:00 19.7 C 90 % 18.01 C
14 28-08-2019 01:05:00 19.6 C 91 % 18.09 C
15 28-08-2019 01:10:00 19.6 C 91 % 18.09 C
16 28-08-2019 01:15:00 19.5 C 91 % 17.99 C
17 28-08-2019 01:20:00 19.5 C 92 % 18.17 C
18 28-08-2019 01:25:00 19.6 C 92 % 18.26 C
19 28-08-2019 01:30:00 19.6 C 92 % 18.26 C
20 28-08-2019 01:35:00 19.6 C 92 % 18.26 C
21 28-08-2019 01:40:00 19.7 C 93 % 18.54 C
22 28-08-2019 01:45:00 19.7 C 93 % 18.54 C
23 28-08-2019 01:50:00 19.7 C 92 % 18.36 C
24 28-08-2019 01:55:00 19.6 C 92 % 18.26 C
25 28-08-2019 02:00:00 19.5 C 92 % 18.17 C
Sensor: Nr:Datum:Temp:Feuchte:Taupunkt:
Aussen-T/F 26 28-08-2019 02:05:00 19.4 C 92 % 18.07 C
27 28-08-2019 02:10:00 19.4 C 92 % 18.07 C
28 28-08-2019 02:15:00 19.3 C 92 % 17.97 C
29 28-08-2019 02:20:00 19.3 C 93 % 18.14 C
30 28-08-2019 02:25:00 19.3 C 93 % 18.14 C
31 28-08-2019 02:30:00 19.3 C 93 % 18.14 C
32 28-08-2019 02:35:00 19.2 C 93 % 18.04 C
33 28-08-2019 02:40:00 19.2 C 93 % 18.04 C
34 28-08-2019 02:45:00 19.1 C 93 % 17.94 C
35 28-08-2019 02:50:00 19 C 93 % 17.84 C
36 28-08-2019 02:55:00 18.9 C 93 % 17.74 C
37 28-08-2019 03:00:00 18.8 C 93 % 17.64 C
38 28-08-2019 03:05:00 18.8 C 93 % 17.64 C
39 28-08-2019 03:10:00 18.7 C 93 % 17.54 C
40 28-08-2019 03:15:00 18.7 C 93 % 17.54 C
41 28-08-2019 03:20:00 18.7 C 94 % 17.71 C
42 28-08-2019 03:25:00 18.7 C 94 % 17.71 C
43 28-08-2019 03:30:00 18.7 C 93 % 17.54 C
44 28-08-2019 03:35:00 18.6 C 93 % 17.45 C
45 28-08-2019 03:40:00 18.6 C 94 % 17.62 C
46 28-08-2019 03:45:00 18.8 C 94 % 17.81 C
47 28-08-2019 03:50:00 18.8 C 94 % 17.81 C
48 28-08-2019 03:55:00 18.7 C 94 % 17.71 C
49 28-08-2019 04:00:00 18.7 C 94 % 17.71 C
50 28-08-2019 04:05:00 18.6 C 94 % 17.62 C
Sensor: Nr:Datum:Temp:Feuchte:Taupunkt:
Aussen-T/F 51 28-08-2019 04:10:00 18.6 C 94 % 17.62 C
52 28-08-2019 04:15:00 18.5 C 94 % 17.52 C
53 28-08-2019 04:20:00 18.4 C 94 % 17.42 C
54 28-08-2019 04:25:00 18.3 C 93 % 17.15 C
55 28-08-2019 04:30:00 18.2 C 94 % 17.22 C
56 28-08-2019 04:35:00 18.2 C 94 % 17.22 C
57 28-08-2019 04:40:00 18.1 C 94 % 17.12 C
58 28-08-2019 04:45:00 18.1 C 94 % 17.12 C
59 28-08-2019 04:50:00 18.1 C 94 % 17.12 C
60 28-08-2019 04:55:00 18.2 C 94 % 17.22 C
61 28-08-2019 05:00:00 18.1 C 94 % 17.12 C
62 28-08-2019 05:05:00 18.1 C 94 % 17.12 C
63 28-08-2019 05:10:00 18.1 C 94 % 17.12 C
64 28-08-2019 05:15:00 18.1 C 94 % 17.12 C
65 28-08-2019 05:20:00 18 C 94 % 17.02 C
66 28-08-2019 05:25:00 17.9 C 94 % 16.92 C
67 28-08-2019 05:30:00 17.8 C 94 % 16.82 C
68 28-08-2019 05:35:00 17.9 C 95 % 17.09 C
69 28-08-2019 05:40:00 17.9 C 95 % 17.09 C
70 28-08-2019 05:45:00 17.9 C 95 % 17.09 C
71 28-08-2019 05:50:00 17.9 C 95 % 17.09 C
72 28-08-2019 05:55:00 17.9 C 95 % 17.09 C
73 28-08-2019 06:00:00 17.9 C 95 % 17.09 C
74 28-08-2019 06:05:00 17.9 C 95 % 17.09 C
75 28-08-2019 06:10:00 18 C 95 % 17.19 C
Sensor: Nr:Datum:Temp:Feuchte:Taupunkt:
Aussen-T/F 76 28-08-2019 06:15:00 18.2 C 96 % 17.55 C
77 28-08-2019 06:20:00 18.3 C 95 % 17.48 C
78 28-08-2019 06:25:00 18.2 C 95 % 17.39 C
79 28-08-2019 06:30:00 18.2 C 95 % 17.39 C
80 28-08-2019 06:35:00 18.1 C 95 % 17.29 C
81 28-08-2019 06:40:00 18 C 95 % 17.19 C
82 28-08-2019 06:45:00 17.8 C 95 % 16.99 C
83 28-08-2019 06:50:00 17.8 C 95 % 16.99 C
84 28-08-2019 06:55:00 17.8 C 95 % 16.99 C
85 28-08-2019 07:00:00 17.8 C 95 % 16.99 C
86 28-08-2019 07:05:00 17.8 C 95 % 16.99 C
87 28-08-2019 07:10:00 17.8 C 95 % 16.99 C
88 28-08-2019 07:15:00 17.9 C 95 % 17.09 C
89 28-08-2019 07:20:00 17.9 C 96 % 17.25 C
90 28-08-2019 07:25:00 17.9 C 95 % 17.09 C
91 28-08-2019 07:30:00 17.8 C 95 % 16.99 C
92 28-08-2019 07:35:00 17.8 C 95 % 16.99 C
93 28-08-2019 07:40:00 17.8 C 95 % 16.99 C
94 28-08-2019 07:45:00 17.8 C 95 % 16.99 C
95 28-08-2019 07:50:00 17.9 C 96 % 17.25 C
96 28-08-2019 07:55:00 18.1 C 96 % 17.45 C
97 28-08-2019 08:00:00 18.2 C 96 % 17.55 C
98 28-08-2019 08:05:00 18.3 C 96 % 17.65 C
99 28-08-2019 08:10:00 18.4 C 96 % 17.75 C
100 28-08-2019 08:15:00 18.5 C 96 % 17.85 C
Sensor: Nr:Datum:Temp:Feuchte:Taupunkt:
Aussen-T/F 101 28-08-2019 08:20:00 18.6 C 96 % 17.95 C
102 28-08-2019 08:25:00 18.7 C 96 % 18.05 C
103 28-08-2019 08:30:00 18.7 C 96 % 18.05 C
104 28-08-2019 08:35:00 18.8 C 96 % 18.15 C
105 28-08-2019 08:40:00 18.8 C 96 % 18.15 C
106 28-08-2019 08:45:00 18.8 C 95 % 17.98 C
107 28-08-2019 08:50:00 18.9 C 95 % 18.08 C
108 28-08-2019 08:55:00 19 C 95 % 18.18 C
109 28-08-2019 09:00:00 19.1 C 95 % 18.28 C
110 28-08-2019 09:05:00 19.1 C 95 % 18.28 C
111 28-08-2019 09:10:00 19.2 C 94 % 18.21 C
112 28-08-2019 09:15:00 19.3 C 94 % 18.31 C
113 28-08-2019 09:20:00 19.4 C 94 % 18.41 C
114 28-08-2019 09:25:00 19.6 C 94 % 18.61 C
115 28-08-2019 09:30:00 19.7 C 94 % 18.71 C
116 28-08-2019 09:35:00 19.9 C 93 % 18.73 C
117 28-08-2019 09:40:00 20.1 C 94 % 19.1 C
118 28-08-2019 09:45:00 20.3 C 92 % 18.96 C
119 28-08-2019 09:50:00 20.6 C 91 % 19.08 C
120 28-08-2019 09:55:00 20.8 C 89 % 18.92 C
121 28-08-2019 10:00:00 21.1 C 88 % 19.03 C
122 28-08-2019 10:05:00 21.3 C 85 % 18.67 C
123 28-08-2019 10:10:00 21.7 C 82 % 18.49 C
124 28-08-2019 10:15:00 22.2 C 80 % 18.58 C
125 28-08-2019 10:20:00 22.5 C 78 % 18.47 C
Sensor: Nr:Datum:Temp:Feuchte:Taupunkt:
Aussen-T/F 126 28-08-2019 10:25:00 22.7 C 77 % 18.46 C
127 28-08-2019 10:30:00 22.8 C 75 % 18.14 C
128 28-08-2019 10:35:00 22.9 C 75 % 18.23 C
129 28-08-2019 10:40:00 22.9 C 74 % 18.02 C
130 28-08-2019 10:45:00 23 C 73 % 17.9 C
131 28-08-2019 10:50:00 23.1 C 73 % 17.99 C
132 28-08-2019 10:55:00 23.2 C 73 % 18.09 C
133 28-08-2019 11:00:00 23.4 C 73 % 18.28 C
134 28-08-2019 11:05:00 23.6 C 73 % 18.48 C
135 28-08-2019 11:10:00 23.7 C 72 % 18.35 C
136 28-08-2019 11:15:00 23.8 C 71 % 18.22 C
137 28-08-2019 11:20:00 23.9 C 72 % 18.54 C
138 28-08-2019 11:25:00 24.1 C 72 % 18.73 C
139 28-08-2019 11:30:00 24.2 C 71 % 18.61 C
140 28-08-2019 11:35:00 24.2 C 71 % 18.61 C
141 28-08-2019 11:40:00 24.2 C 70 % 18.38 C
142 28-08-2019 11:45:00 24.2 C 71 % 18.61 C
143 28-08-2019 11:50:00 24.2 C 71 % 18.61 C
144 28-08-2019 11:55:00 24.2 C 73 % 19.05 C
145 28-08-2019 12:00:00 24.2 C 75 % 19.49 C
146 28-08-2019 12:05:00 24.2 C 76 % 19.7 C
147 28-08-2019 12:10:00 24.2 C 77 % 19.91 C
148 28-08-2019 12:15:00 24.1 C 76 % 19.6 C
149 28-08-2019 12:20:00 24.1 C 73 % 18.96 C
150 28-08-2019 12:25:00 24.1 C 72 % 18.73 C
Sensor: Nr:Datum:Temp:Feuchte:Taupunkt:
Aussen-T/F 151 28-08-2019 12:30:00 24.3 C 69 % 18.25 C
152 28-08-2019 12:35:00 24.6 C 69 % 18.53 C
153 28-08-2019 12:40:00 24.8 C 68 % 18.49 C
154 28-08-2019 12:45:00 24.9 C 66 % 18.11 C
155 28-08-2019 12:50:00 25.1 C 65 % 18.06 C
156 28-08-2019 12:55:00 25.3 C 64 % 18 C
157 28-08-2019 13:00:00 25.4 C 64 % 18.09 C
158 28-08-2019 13:05:00 25.5 C 63 % 17.94 C
159 28-08-2019 13:10:00 25.6 C 63 % 18.03 C
160 28-08-2019 13:15:00 25.7 C 63 % 18.13 C
161 28-08-2019 13:20:00 25.8 C 61 % 17.71 C
162 28-08-2019 13:25:00 26 C 61 % 17.9 C
163 28-08-2019 13:30:00 26.3 C 58 % 17.38 C
164 28-08-2019 13:35:00 26.8 C 56 % 17.29 C
165 28-08-2019 13:40:00 27.3 C 56 % 17.75 C
166 28-08-2019 13:45:00 27.8 C 55 % 17.93 C
167 28-08-2019 13:50:00 28.1 C 54 % 17.92 C
168 28-08-2019 13:55:00 28.2 C 52 % 17.41 C
169 28-08-2019 14:00:00 28.4 C 52 % 17.59 C
170 28-08-2019 14:05:00 28.7 C 52 % 17.87 C
171 28-08-2019 14:10:00 28.8 C 53 % 18.26 C
172 28-08-2019 14:15:00 29 C 52 % 18.15 C
173 28-08-2019 14:20:00 29.3 C 50 % 17.8 C
174 28-08-2019 14:25:00 29.4 C 52 % 18.51 C
175 28-08-2019 14:30:00 29.6 C 49 % 17.75 C
Sensor: Nr:Datum:Temp:Feuchte:Taupunkt:
Aussen-T/F 176 28-08-2019 14:35:00 29.6 C 51 % 18.39 C
177 28-08-2019 14:40:00 29.8 C 50 % 18.25 C
178 28-08-2019 14:45:00 30.1 C 49 % 18.21 C
179 28-08-2019 14:50:00 30.3 C 47 % 17.73 C
180 28-08-2019 14:55:00 30.3 C 47 % 17.73 C
181 28-08-2019 15:00:00 30.2 C 47 % 17.64 C
182 28-08-2019 15:05:00 30.2 C 50 % 18.62 C
183 28-08-2019 15:10:00 30.2 C 44 % 16.59 C
184 28-08-2019 15:15:00 30.1 C 44 % 16.5 C
185 28-08-2019 15:20:00 30 C 44 % 16.41 C
186 28-08-2019 15:25:00 30.1 C 43 % 16.14 C
187 28-08-2019 15:30:00 30.3 C 43 % 16.32 C
188 28-08-2019 15:35:00 30.4 C 42 % 16.04 C
189 28-08-2019 15:40:00 30.6 C 44 % 16.95 C
190 28-08-2019 15:45:00 30.7 C 44 % 17.04 C
191 28-08-2019 15:50:00 30.7 C 43 % 16.68 C
192 28-08-2019 15:55:00 30.8 C 43 % 16.77 C
193 28-08-2019 16:00:00 30.9 C 43 % 16.86 C
194 28-08-2019 16:05:00 31.1 C 42 % 16.67 C
195 28-08-2019 16:10:00 31.3 C 41 % 16.47 C
196 28-08-2019 16:15:00 31.5 C 39 % 15.86 C
197 28-08-2019 16:20:00 31.6 C 40 % 16.35 C
198 28-08-2019 16:25:00 31.7 C 41 % 16.83 C
199 28-08-2019 16:30:00 31.8 C 40 % 16.53 C
200 28-08-2019 16:35:00 31.8 C 41 % 16.92 C
Sensor: Nr:Datum:Temp:Feuchte:Taupunkt:
Aussen-T/F 201 28-08-2019 16:40:00 31.8 C 43 % 17.67 C
202 28-08-2019 16:45:00 31.8 C 41 % 16.92 C
203 28-08-2019 16:50:00 31.8 C 42 % 17.3 C
204 28-08-2019 16:55:00 31.6 C 43 % 17.49 C
205 28-08-2019 17:00:00 31.4 C 42 % 16.94 C
206 28-08-2019 17:05:00 31.3 C 44 % 17.58 C
207 28-08-2019 17:10:00 31.4 C 43 % 17.31 C
208 28-08-2019 17:15:00 31.6 C 46 % 18.56 C
209 28-08-2019 17:20:00 31.8 C 42 % 17.3 C
210 28-08-2019 17:25:00 31.9 C 43 % 17.76 C
211 28-08-2019 17:30:00 31.8 C 42 % 17.3 C
212 28-08-2019 17:35:00 31.9 C 40 % 16.62 C
213 28-08-2019 17:40:00 32 C 42 % 17.48 C
214 28-08-2019 17:45:00 32.1 C 41 % 17.18 C
215 28-08-2019 17:50:00 32.2 C 40 % 16.88 C
216 28-08-2019 17:55:00 32.3 C 39 % 16.57 C
217 28-08-2019 18:00:00 32.3 C 40 % 16.97 C
218 28-08-2019 18:05:00 32.2 C 40 % 16.88 C
219 28-08-2019 18:10:00 32 C 44 % 18.21 C
220 28-08-2019 18:15:00 31.9 C 47 % 19.18 C
221 28-08-2019 18:20:00 31.9 C 41 % 17.01 C
222 28-08-2019 18:25:00 31.4 C 42 % 16.94 C
223 28-08-2019 18:30:00 31.1 C 47 % 18.45 C
224 28-08-2019 18:35:00 30.8 C 47 % 18.18 C
225 28-08-2019 18:40:00 30.4 C 51 % 19.12 C
Sensor: Nr:Datum:Temp:Feuchte:Taupunkt:
Aussen-T/F 226 28-08-2019 18:45:00 30.2 C 50 % 18.62 C
227 28-08-2019 18:50:00 30.1 C 51 % 18.85 C
228 28-08-2019 18:55:00 29.9 C 49 % 18.02 C
229 28-08-2019 19:00:00 29.7 C 48 % 17.51 C
230 28-08-2019 19:05:00 29.3 C 51 % 18.11 C
231 28-08-2019 19:10:00 28.9 C 52 % 18.05 C
232 28-08-2019 19:15:00 28.6 C 51 % 17.47 C
233 28-08-2019 19:20:00 28.2 C 52 % 17.41 C
234 28-08-2019 19:25:00 27.8 C 52 % 17.04 C
235 28-08-2019 19:30:00 27.6 C 51 % 16.55 C
236 28-08-2019 19:35:00 27.3 C 55 % 17.47 C
237 28-08-2019 19:40:00 27.1 C 52 % 16.4 C
238 28-08-2019 19:45:00 26.9 C 54 % 16.81 C
239 28-08-2019 19:50:00 26.7 C 54 % 16.62 C
240 28-08-2019 19:55:00 26.4 C 54 % 16.34 C
241 28-08-2019 20:00:00 26.3 C 55 % 16.54 C
242 28-08-2019 20:05:00 26.2 C 55 % 16.45 C
243 28-08-2019 20:10:00 26 C 56 % 16.54 C
244 28-08-2019 20:15:00 25.9 C 55 % 16.17 C
245 28-08-2019 20:20:00 25.8 C 55 % 16.07 C
246 28-08-2019 20:25:00 25.7 C 56 % 16.26 C
247 28-08-2019 20:30:00 25.5 C 57 % 16.36 C
248 28-08-2019 20:35:00 25.4 C 56 % 15.99 C
249 28-08-2019 20:40:00 25.3 C 58 % 16.44 C
250 28-08-2019 20:45:00 25.1 C 58 % 16.26 C
Sensor: Nr:Datum:Temp:Feuchte:Taupunkt:
Aussen-T/F 251 28-08-2019 20:50:00 25 C 59 % 16.43 C
252 28-08-2019 20:55:00 24.9 C 59 % 16.34 C
253 28-08-2019 21:00:00 24.8 C 58 % 15.98 C
254 28-08-2019 21:05:00 24.7 C 60 % 16.41 C
255 28-08-2019 21:10:00 24.6 C 61 % 16.58 C
256 28-08-2019 21:15:00 24.5 C 62 % 16.74 C
257 28-08-2019 21:20:00 24.3 C 61 % 16.3 C
258 28-08-2019 21:25:00 24.3 C 62 % 16.55 C
259 28-08-2019 21:30:00 24.2 C 61 % 16.2 C
260 28-08-2019 21:35:00 24.1 C 63 % 16.62 C
261 28-08-2019 21:40:00 24 C 65 % 17.01 C
262 28-08-2019 21:45:00 23.8 C 65 % 16.83 C
263 28-08-2019 21:50:00 23.7 C 65 % 16.73 C
264 28-08-2019 21:55:00 23.4 C 67 % 16.92 C
265 28-08-2019 22:00:00 23.2 C 66 % 16.5 C
266 28-08-2019 22:05:00 22.9 C 67 % 16.45 C
267 28-08-2019 22:10:00 22.7 C 66 % 16.02 C
268 28-08-2019 22:15:00 22.6 C 68 % 16.39 C
269 28-08-2019 22:20:00 22.6 C 70 % 16.85 C
270 28-08-2019 22:25:00 22.4 C 71 % 16.88 C
271 28-08-2019 22:30:00 22.3 C 71 % 16.79 C
272 28-08-2019 22:35:00 22.3 C 71 % 16.79 C
273 28-08-2019 22:40:00 22.2 C 72 % 16.91 C
274 28-08-2019 22:45:00 22.1 C 73 % 17.03 C
275 28-08-2019 22:50:00 22 C 73 % 16.94 C
Sensor: Nr:Datum:Temp:Feuchte:Taupunkt:
Aussen-T/F 276 28-08-2019 22:55:00 21.9 C 73 % 16.84 C
277 28-08-2019 23:00:00 21.8 C 72 % 16.53 C
278 28-08-2019 23:05:00 21.7 C 73 % 16.65 C
279 28-08-2019 23:10:00 21.6 C 73 % 16.55 C
280 28-08-2019 23:15:00 21.6 C 74 % 16.77 C
281 28-08-2019 23:20:00 21.4 C 74 % 16.57 C
282 28-08-2019 23:25:00 21.3 C 74 % 16.48 C
283 28-08-2019 23:30:00 21.3 C 75 % 16.69 C
284 28-08-2019 23:35:00 21.2 C 75 % 16.59 C
285 28-08-2019 23:40:00 21.2 C 75 % 16.59 C
286 28-08-2019 23:45:00 21.2 C 76 % 16.8 C
287 28-08-2019 23:50:00 21.2 C 76 % 16.8 C
288 28-08-2019 23:55:00 21.1 C 75 % 16.5 C

Legende:
   Min
   Max


Maximal/Minimal-Werte vom 28.08.2019 - 28.08.2019

Sensor Min Max Avg
Temp
(Aussen-T/F)
17.8 °C
28-08-2019  05:30:00
32.3 °C
28-08-2019  17:55:00
23.39 °C
Feuchte
(Aussen-T/F)
39 %
28-08-2019  16:15:00
96 %
28-08-2019  06:15:00
73.09 %
Taupunkt
(Aussen-T/F)
15.86 C
28-08-2019  16:15:00
19.91 C
28-08-2019  12:10:00
17.49 C

Die Daten stammen von einer Davis Vantage Pro 2 Wetter-Station und werden unter Linux mit der Software wview2wettercgi und aufbereitet. Alle Angaben erfolgen ohne Gewähr für ihre Vollständigkeit oder Richtigkeit.
Kontakt: Rainer Krienke krienke@uni-koblenz.de . Meine Webseiten an der Uni Koblenz oder privat.
Version: $Revision: 0.78 $